Caribou Municipal Airport Caribou US
ICAO: KCAR
IATA: CAR
Category: Medium
Scheduled Services: No

Elevation: 626 ft
TransAlt. 18000 ft.

Airport Communications:
ASOS:135.125
BOSTON CNTR:124.75
BANGOR RDO:122.3
CTAF/UNICOM:122.8

KCAR Zoom In..

If you have problems with the map follow the link
https://www.worldairports.se/pages/airport.php?
ICAO=KCAR

Runways:

(A) RW 01 length 4003 ft width 100 ft
---- / hdg 7

(B) RW 11 length 3016 ft width 75 ft
---- / hdg 107

(C) RW 19 length 4003 ft width 100 ft
---- / hdg 187

(D) RW 29 length 3016 ft width 75 ft
---- / hdg 287

Location; KCAR
Day. 14 / Time. 21.54 Zulu
* Altimeter: 30.21
* Temperature: -04° c. -24.8°f.
* Wind from: 170° Speed 05 kn.
Dewpoint: -09° c.
Visibility: 10 Statute Miles.
Clouds: Overcast 3200 ft.

KCAR 142154Z AUTO 17005KT 10SM OVC032 M04/M09 A3021 RMK AO2 SLP246 T10391089


Wind From 170°
Speed 05 kn.

 
 
jpsmedia.com for Web Design worldairports.se 2018   terms of use